createdAt,value
2018-10-11T00:02:24.552Z,13.40
2018-10-11T00:04:52.094Z,13.40
2018-10-11T00:07:19.634Z,13.40
2018-10-11T00:09:47.249Z,13.40
2018-10-11T00:12:16.793Z,13.40
2018-10-11T00:14:44.329Z,13.40
2018-10-11T00:17:11.941Z,13.40
2018-10-11T00:19:39.461Z,13.50
2018-10-11T00:22:07.749Z,13.50
2018-10-11T00:24:35.279Z,13.50
2018-10-11T00:27:02.841Z,13.50
2018-10-11T00:29:31.598Z,13.50
2018-10-11T00:31:59.450Z,13.50
2018-10-11T00:34:26.992Z,13.40
2018-10-11T00:36:54.950Z,13.40
2018-10-11T00:39:22.730Z,13.40
2018-10-11T00:41:50.254Z,13.50
2018-10-11T00:44:17.850Z,13.50
2018-10-11T00:46:46.729Z,13.60
2018-10-11T00:49:14.325Z,13.60
2018-10-11T00:51:41.861Z,13.60
2018-10-11T00:54:10.472Z,13.70
2018-10-11T00:56:38.307Z,13.80
2018-10-11T00:59:36.877Z,13.80
2018-10-11T01:02:05.473Z,13.70
2018-10-11T01:04:33.445Z,13.50
2018-10-11T01:07:01.105Z,13.40
2018-10-11T01:09:28.769Z,13.50
2018-10-11T01:11:56.173Z,13.40
2018-10-11T01:14:23.718Z,13.30
2018-10-11T01:16:51.289Z,13.20
2018-10-11T01:19:19.780Z,13.10
2018-10-11T01:21:47.329Z,13.10
2018-10-11T01:24:14.873Z,13.10
2018-10-11T01:26:44.455Z,13.10
2018-10-11T01:29:12.137Z,13.10
2018-10-11T01:31:39.713Z,13.20
2018-10-11T01:34:07.286Z,13.30
2018-10-11T01:36:34.857Z,13.30
2018-10-11T01:39:02.544Z,13.40
2018-10-11T01:41:31.965Z,13.40
2018-10-11T01:43:59.937Z,13.50
2018-10-11T01:46:27.488Z,13.40
2018-10-11T01:48:55.961Z,13.50
2018-10-11T01:51:23.566Z,13.50
2018-10-11T01:53:51.149Z,13.50
2018-10-11T01:56:18.693Z,13.40
2018-10-11T01:58:46.241Z,13.40
2018-10-11T02:01:14.034Z,13.30
2018-10-11T02:03:43.472Z,13.20
2018-10-11T02:06:11.296Z,13.10
2018-10-11T02:08:39.821Z,13.00
2018-10-11T02:11:07.505Z,13.00
2018-10-11T02:13:35.225Z,12.90
2018-10-11T02:16:02.749Z,12.80
2018-10-11T02:18:30.265Z,12.80
2018-10-11T02:20:57.790Z,12.80
2018-10-11T02:23:25.383Z,12.70
2018-10-11T02:25:52.922Z,12.60
2018-10-11T02:28:20.633Z,12.60
2018-10-11T02:30:48.150Z,12.60
2018-10-11T02:33:15.680Z,12.60
2018-10-11T02:35:43.526Z,12.70
2018-10-11T02:38:11.074Z,12.70
2018-10-11T02:40:39.996Z,12.70
2018-10-11T02:43:07.565Z,12.70
2018-10-11T02:45:35.230Z,12.70
2018-10-11T02:48:02.877Z,12.70
2018-10-11T02:50:30.437Z,12.70
2018-10-11T02:52:59.249Z,12.70
2018-10-11T02:55:27.165Z,12.70
2018-10-11T02:58:06.813Z,12.70
2018-10-11T03:00:34.850Z,12.70
2018-10-11T03:03:08.393Z,12.70
2018-10-11T03:05:39.168Z,12.70
2018-10-11T03:08:11.372Z,12.70
2018-10-11T03:10:38.999Z,12.70
2018-10-11T03:13:09.089Z,12.70
2018-10-11T03:15:36.961Z,12.70
2018-10-11T03:18:04.685Z,12.60
2018-10-11T03:20:32.285Z,12.60
2018-10-11T03:22:59.789Z,12.60
2018-10-11T03:25:27.457Z,12.50
2018-10-11T03:27:54.989Z,12.60
2018-10-11T03:30:22.609Z,12.60
2018-10-11T03:32:50.133Z,12.60
2018-10-11T03:35:18.537Z,12.70
2018-10-11T03:37:46.202Z,12.70
2018-10-11T03:40:13.765Z,12.70
2018-10-11T03:42:41.837Z,12.70
2018-10-11T03:45:13.253Z,12.70
2018-10-11T03:47:40.794Z,12.70
2018-10-11T03:50:08.805Z,12.60
2018-10-11T03:52:36.361Z,12.60
2018-10-11T03:55:04.008Z,12.70
2018-10-11T03:57:31.604Z,12.70
2018-10-11T03:59:59.169Z,12.70
2018-10-11T04:02:26.704Z,12.60
2018-10-11T04:04:54.305Z,12.60
2018-10-11T04:07:21.901Z,12.70
2018-10-11T04:09:49.493Z,12.70
2018-10-11T04:12:17.037Z,12.70
2018-10-11T04:14:44.574Z,12.70
2018-10-11T04:17:12.142Z,12.70
2018-10-11T04:19:39.704Z,12.70
2018-10-11T04:22:07.415Z,12.70
2018-10-11T04:24:37.797Z,12.70
2018-10-11T04:27:05.924Z,12.70
2018-10-11T04:29:33.527Z,12.80
2018-10-11T04:32:01.100Z,12.80
2018-10-11T04:34:28.686Z,12.90
2018-10-11T04:36:58.189Z,12.90
2018-10-11T04:39:25.845Z,13.00
2018-10-11T04:41:53.399Z,13.10
2018-10-11T04:44:20.925Z,13.10
2018-10-11T04:46:49.293Z,13.20
2018-10-11T04:49:16.885Z,13.10
2018-10-11T04:51:44.485Z,13.20
2018-10-11T04:54:12.022Z,13.20
2018-10-11T04:56:39.637Z,13.20
2018-10-11T04:59:07.341Z,13.20
2018-10-11T05:01:34.901Z,13.20
2018-10-11T05:04:02.505Z,13.10
2018-10-11T05:06:30.129Z,13.10
2018-10-11T05:08:57.785Z,13.10
2018-10-11T05:11:25.416Z,13.20
2018-10-11T05:13:53.309Z,13.20
2018-10-11T05:16:20.990Z,13.20
2018-10-11T05:18:57.345Z,13.20
2018-10-11T05:21:24.941Z,13.30
2018-10-11T05:23:52.581Z,13.30
2018-10-11T05:26:20.191Z,13.30
2018-10-11T05:28:47.831Z,13.30
2018-10-11T05:31:16.159Z,13.20
2018-10-11T05:33:44.353Z,13.20
2018-10-11T05:36:12.542Z,13.20
2018-10-11T05:38:40.098Z,13.20
2018-10-11T05:41:07.718Z,13.10
2018-10-11T05:43:35.730Z,13.20
2018-10-11T05:46:05.401Z,13.10
2018-10-11T05:48:33.174Z,13.10
2018-10-11T05:51:01.462Z,13.10
2018-10-11T05:53:29.553Z,13.10
2018-10-11T05:55:59.252Z,13.10
2018-10-11T05:58:27.502Z,13.10
2018-10-11T06:00:55.155Z,13.20
2018-10-11T06:03:22.785Z,13.30
2018-10-11T06:05:53.310Z,13.20
2018-10-11T06:08:20.922Z,13.20
2018-10-11T06:10:48.545Z,13.10
2018-10-11T06:13:16.929Z,13.10
2018-10-11T06:15:44.693Z,13.10
2018-10-11T06:18:12.591Z,13.20
2018-10-11T06:20:41.701Z,13.20
2018-10-11T06:23:09.354Z,13.30
2018-10-11T06:25:36.917Z,13.30
2018-10-11T06:28:04.621Z,13.20
2018-10-11T06:30:32.877Z,13.30
2018-10-11T06:33:00.503Z,13.30
2018-10-11T06:35:30.245Z,13.30
2018-10-11T06:37:58.715Z,13.30
2018-10-11T06:40:26.438Z,13.30
2018-10-11T06:42:54.109Z,13.40
2018-10-11T06:45:21.765Z,13.50
2018-10-11T06:47:51.671Z,13.50
2018-10-11T06:50:19.761Z,13.50
2018-10-11T06:52:48.268Z,13.60
2018-10-11T06:55:15.797Z,13.70
2018-10-11T06:57:43.340Z,13.70
2018-10-11T07:00:10.901Z,13.90
2018-10-11T07:02:38.573Z,13.90
2018-10-11T07:05:06.164Z,14.00
2018-10-11T07:07:33.693Z,14.00
2018-10-11T07:10:01.204Z,14.10
2018-10-11T07:12:28.761Z,14.10
2018-10-11T07:14:56.260Z,14.40
2018-10-11T07:17:23.817Z,14.60
2018-10-11T07:19:52.455Z,14.60
2018-10-11T07:22:19.985Z,14.60
2018-10-11T07:24:47.577Z,14.60
2018-10-11T07:27:15.129Z,14.70
2018-10-11T07:29:42.701Z,14.90
2018-10-11T07:32:10.228Z,15.10
2018-10-11T07:34:37.859Z,15.10
2018-10-11T07:37:05.414Z,15.20
2018-10-11T07:39:32.966Z,15.40
2018-10-11T07:42:00.501Z,15.60
2018-10-11T07:44:28.057Z,15.80
2018-10-11T07:46:55.611Z,15.90
2018-10-11T07:49:23.122Z,16.10
2018-10-11T07:51:50.720Z,16.20
2018-10-11T07:54:19.657Z,16.40
2018-10-11T07:56:47.561Z,16.50
2018-10-11T08:01:42.610Z,16.90
2018-10-11T08:04:10.097Z,17.10
2018-10-11T08:06:37.612Z,17.30
2018-10-11T08:09:06.606Z,17.40
2018-10-11T08:11:34.163Z,17.70
2018-10-11T08:14:01.661Z,17.80
2018-10-11T08:16:29.290Z,17.90
2018-10-11T08:18:56.863Z,17.90
2018-10-11T08:21:27.337Z,17.90
2018-10-11T08:23:54.818Z,17.80
2018-10-11T08:26:22.795Z,17.90
2018-10-11T08:28:50.143Z,18.00
2018-10-11T08:31:17.649Z,18.00
2018-10-11T08:33:45.189Z,18.00
2018-10-11T08:36:12.684Z,18.10
2018-10-11T08:38:40.263Z,18.20
2018-10-11T08:41:07.830Z,18.30
2018-10-11T08:43:40.334Z,18.50
2018-10-11T08:46:07.886Z,18.60
2018-10-11T08:48:35.468Z,18.60
2018-10-11T08:51:03.985Z,18.80
2018-10-11T08:53:31.526Z,18.80
2018-10-11T08:55:59.120Z,18.90
2018-10-11T08:58:26.562Z,19.00
2018-10-11T09:00:57.997Z,19.00
2018-10-11T09:03:25.603Z,18.90
2018-10-11T09:05:53.102Z,19.00
2018-10-11T09:08:20.625Z,19.00
2018-10-11T09:10:48.163Z,19.10
2018-10-11T09:13:17.761Z,19.10
2018-10-11T09:15:47.159Z,19.20
2018-10-11T09:18:14.669Z,19.30
2018-10-11T09:20:42.293Z,19.50
2018-10-11T09:23:09.831Z,19.50
2018-10-11T09:25:37.645Z,19.60
2018-10-11T09:28:05.144Z,19.70
2018-10-11T09:30:35.578Z,19.80
2018-10-11T09:33:03.129Z,19.90
2018-10-11T09:35:31.494Z,20.00
2018-10-11T09:37:59.047Z,20.20
2018-10-11T09:40:26.589Z,20.30
2018-10-11T09:42:54.139Z,20.40
2018-10-11T09:45:21.739Z,20.50
2018-10-11T09:47:49.275Z,20.60
2018-10-11T09:50:16.854Z,20.70
2018-10-11T09:52:44.457Z,20.80
2018-10-11T09:55:11.992Z,21.00
2018-10-11T09:57:39.621Z,21.00
2018-10-11T10:00:14.857Z,21.30
2018-10-11T10:02:42.396Z,21.30
2018-10-11T10:05:10.117Z,21.30
2018-10-11T10:07:37.685Z,21.40
2018-10-11T10:10:05.577Z,21.50
2018-10-11T10:12:33.301Z,21.60
2018-10-11T10:15:00.846Z,21.70
2018-10-11T10:17:28.414Z,21.80
2018-10-11T10:19:56.617Z,21.80
2018-10-11T10:22:24.927Z,21.90
2018-10-11T10:24:52.482Z,22.10
2018-10-11T10:27:21.139Z,22.30
2018-10-11T10:29:48.545Z,22.60
2018-10-11T10:32:16.099Z,22.70
2018-10-11T10:34:43.625Z,22.70
2018-10-11T10:37:12.149Z,22.70
2018-10-11T10:39:41.326Z,22.70
2018-10-11T10:42:09.176Z,22.70
2018-10-11T10:44:36.785Z,22.80
2018-10-11T10:47:04.371Z,22.70
2018-10-11T10:49:32.007Z,22.60
2018-10-11T10:51:59.589Z,22.50
2018-10-11T10:54:29.082Z,22.30
2018-10-11T10:56:57.341Z,22.20
2018-10-11T10:59:24.904Z,22.20
2018-10-11T11:01:52.757Z,22.30
2018-10-11T11:04:20.298Z,22.20
2018-10-11T11:06:47.907Z,22.00
2018-10-11T11:09:15.484Z,22.10
2018-10-11T11:11:43.481Z,22.10
2018-10-11T11:14:12.157Z,22.10
2018-10-11T11:16:39.977Z,22.30
2018-10-11T11:19:07.848Z,22.50
2018-10-11T11:21:35.590Z,22.60
2018-10-11T11:24:03.226Z,22.70
2018-10-11T11:26:30.906Z,22.90
2018-10-11T11:28:58.845Z,22.90
2018-10-11T11:31:26.558Z,22.80
2018-10-11T11:33:54.101Z,22.70
2018-10-11T11:36:21.738Z,22.70
2018-10-11T11:38:49.285Z,22.70
2018-10-11T11:41:17.955Z,22.50
2018-10-11T11:43:47.505Z,22.60
2018-10-11T11:46:17.967Z,22.60
2018-10-11T11:48:46.403Z,22.40
2018-10-11T11:51:15.145Z,22.40
2018-10-11T11:53:43.426Z,22.40
2018-10-11T11:56:11.290Z,22.30
2018-10-11T11:58:39.257Z,22.10
2018-10-11T12:01:07.749Z,22.10
2018-10-11T12:03:35.380Z,22.00
2018-10-11T12:06:03.357Z,22.00
2018-10-11T12:08:32.069Z,22.00
2018-10-11T12:10:59.850Z,21.90
2018-10-11T12:13:27.709Z,21.90
2018-10-11T12:15:58.480Z,21.90
2018-10-11T12:18:26.044Z,21.90
2018-10-11T12:20:53.608Z,21.80
2018-10-11T12:23:21.248Z,21.70
2018-10-11T12:25:48.832Z,21.70
2018-10-11T12:28:16.433Z,21.80
2018-10-11T12:30:44.481Z,21.70
2018-10-11T12:33:12.081Z,21.80
2018-10-11T12:35:39.885Z,21.70
2018-10-11T12:38:07.526Z,21.70
2018-10-11T12:40:35.101Z,21.70
2018-10-11T12:43:02.717Z,21.70
2018-10-11T12:45:30.381Z,21.60
2018-10-11T12:47:57.992Z,21.70
2018-10-11T12:50:25.545Z,21.70
2018-10-11T12:52:53.256Z,21.80
2018-10-11T12:55:20.874Z,21.90
2018-10-11T12:57:48.458Z,21.90
2018-10-11T13:00:16.681Z,22.00
2018-10-11T13:02:44.930Z,22.20
2018-10-11T13:05:12.501Z,22.40
2018-10-11T13:07:40.629Z,22.50
2018-10-11T13:10:08.886Z,22.50
2018-10-11T13:15:04.197Z,22.60
2018-10-11T13:17:37.007Z,22.70
2018-10-11T13:19:59.350Z,22.50
2018-10-11T13:22:26.942Z,22.60
2018-10-11T13:24:54.476Z,22.60
2018-10-11T13:27:22.025Z,22.60
2018-10-11T13:29:49.597Z,22.60
2018-10-11T13:32:17.141Z,22.60
2018-10-11T13:34:44.795Z,22.60
2018-10-11T13:37:12.297Z,22.40
2018-10-11T13:39:44.305Z,22.40
2018-10-11T13:42:07.487Z,22.40
2018-10-11T13:44:39.942Z,22.50
2018-10-11T13:47:07.491Z,22.60
2018-10-11T13:49:35.157Z,22.50
2018-10-11T13:52:02.718Z,22.60
2018-10-11T13:54:30.282Z,22.80
2018-10-11T13:57:00.257Z,22.90
2018-10-11T13:59:25.629Z,22.90
2018-10-11T14:01:53.195Z,23.10
2018-10-11T14:04:20.793Z,23.00
2018-10-11T14:06:48.409Z,23.10
2018-10-11T14:09:16.017Z,23.10
2018-10-11T14:11:43.669Z,23.00
2018-10-11T14:14:11.281Z,23.00
2018-10-11T14:16:38.881Z,22.90
2018-10-11T14:19:06.665Z,22.80
2018-10-11T14:21:34.232Z,22.80
2018-10-11T14:24:01.834Z,22.80
2018-10-11T14:26:29.597Z,22.60
2018-10-11T14:28:57.176Z,22.70
2018-10-11T14:31:25.395Z,22.70
2018-10-11T14:33:53.581Z,22.60
2018-10-11T14:36:21.724Z,22.50
2018-10-11T14:38:49.941Z,22.40
2018-10-11T14:41:17.677Z,22.40
2018-10-11T14:43:47.070Z,22.30
2018-10-11T14:46:14.801Z,22.20
2018-10-11T14:48:42.710Z,22.10
2018-10-11T14:51:10.738Z,22.10
2018-10-11T14:53:38.221Z,22.20
2018-10-11T14:56:06.210Z,22.20
2018-10-11T14:58:33.833Z,22.20
2018-10-11T15:01:01.485Z,22.20
2018-10-11T15:03:29.032Z,22.20
2018-10-11T15:05:56.659Z,22.30
2018-10-11T15:08:24.229Z,22.50
2018-10-11T15:10:52.145Z,23.70
2018-10-11T15:13:20.594Z,25.10
2018-10-11T15:15:48.189Z,27.70
2018-10-11T15:18:15.782Z,28.00
2018-10-11T15:20:43.549Z,28.40
2018-10-11T15:23:11.133Z,28.20
2018-10-11T15:25:38.799Z,27.30
2018-10-11T15:28:06.689Z,26.10
2018-10-11T15:30:34.242Z,25.10
2018-10-11T15:33:02.273Z,24.40
2018-10-11T15:35:29.869Z,24.30
2018-10-11T15:38:00.425Z,24.90
2018-10-11T15:40:28.067Z,26.40
2018-10-11T15:42:55.743Z,28.40
2018-10-11T15:45:23.429Z,30.00
2018-10-11T15:47:50.976Z,31.10
2018-10-11T15:50:18.551Z,31.80
2018-10-11T15:52:46.179Z,32.40
2018-10-11T15:55:13.769Z,32.40
2018-10-11T15:57:41.334Z,30.80
2018-10-11T16:00:09.337Z,28.90
2018-10-11T16:02:36.909Z,27.40
2018-10-11T16:05:04.557Z,25.90
2018-10-11T16:07:32.136Z,24.90
2018-10-11T16:09:59.713Z,24.00
2018-10-11T16:12:27.242Z,23.70
2018-10-11T16:14:54.786Z,23.40
2018-10-11T16:17:22.380Z,23.20
2018-10-11T16:19:49.930Z,23.20
2018-10-11T16:22:17.901Z,23.00
2018-10-11T16:24:46.275Z,22.90
2018-10-11T16:27:13.836Z,22.60
2018-10-11T16:29:42.393Z,22.40
2018-10-11T16:32:10.269Z,22.20
2018-10-11T16:34:37.771Z,21.90
2018-10-11T16:37:05.373Z,21.80
2018-10-11T16:39:33.274Z,21.70
2018-10-11T16:42:01.562Z,21.40
2018-10-11T16:44:32.182Z,21.30
2018-10-11T16:46:59.765Z,21.20
2018-10-11T16:49:27.310Z,21.10
2018-10-11T16:51:54.941Z,20.90
2018-10-11T16:54:22.513Z,20.80
2018-10-11T16:56:50.106Z,20.70
2018-10-11T16:59:17.661Z,20.60
2018-10-11T17:01:45.413Z,20.50
2018-10-11T17:04:13.056Z,20.40
2018-10-11T17:06:40.578Z,20.30
2018-10-11T17:09:09.189Z,20.30
2018-10-11T17:11:36.800Z,20.20
2018-10-11T17:14:04.842Z,20.10
2018-10-11T17:16:32.437Z,20.10
2018-10-11T17:19:00.203Z,20.00
2018-10-11T17:21:27.816Z,20.00
2018-10-11T17:23:55.405Z,19.90
2018-10-11T17:26:24.769Z,19.90
2018-10-11T17:28:52.373Z,19.90
2018-10-11T17:31:19.925Z,19.80
2018-10-11T17:33:47.485Z,19.80
2018-10-11T17:36:15.244Z,19.70
2018-10-11T17:38:42.885Z,19.70
2018-10-11T17:41:10.558Z,19.60
2018-10-11T17:43:42.915Z,19.50
2018-10-11T17:46:10.533Z,19.40
2018-10-11T17:48:38.208Z,19.40
2018-10-11T17:51:05.901Z,19.40
2018-10-11T17:53:33.897Z,19.30
2018-10-11T17:56:01.722Z,19.20
2018-10-11T18:00:55.425Z,19.20
2018-10-11T18:03:23.084Z,19.10
2018-10-11T18:05:50.581Z,19.00
2018-10-11T18:08:18.144Z,19.00
2018-10-11T18:10:45.738Z,19.00
2018-10-11T18:13:13.434Z,18.90
2018-10-11T18:15:41.037Z,18.90
2018-10-11T18:18:08.617Z,18.90
2018-10-11T18:20:36.193Z,18.80
2018-10-11T18:23:04.197Z,18.80
2018-10-11T18:25:32.017Z,18.70
2018-10-11T18:27:59.633Z,18.70
2018-10-11T18:30:27.206Z,18.60
2018-10-11T18:32:54.788Z,18.60
2018-10-11T18:35:25.397Z,18.60
2018-10-11T18:37:59.784Z,18.50
2018-10-11T18:40:29.231Z,18.40
2018-10-11T18:43:02.961Z,18.40
2018-10-11T18:45:30.571Z,18.30
2018-10-11T18:47:58.161Z,18.20
2018-10-11T18:50:25.714Z,18.10
2018-10-11T18:52:53.879Z,18.10
2018-10-11T18:55:21.762Z,18.00
2018-10-11T18:57:50.033Z,18.00
2018-10-11T19:00:17.606Z,18.00
2018-10-11T19:02:46.269Z,18.00
2018-10-11T19:05:13.820Z,18.00
2018-10-11T19:07:41.562Z,17.90
2018-10-11T19:10:13.070Z,17.90
2018-10-11T19:12:40.648Z,17.90
2018-10-11T19:15:08.258Z,17.90
2018-10-11T19:17:35.829Z,17.80
2018-10-11T19:20:03.426Z,17.80
2018-10-11T19:22:30.965Z,17.80
2018-10-11T19:24:58.533Z,17.80
2018-10-11T19:27:26.103Z,17.70
2018-10-11T19:29:54.034Z,17.70
2018-10-11T19:32:21.677Z,17.60
2018-10-11T19:34:51.174Z,17.60
2018-10-11T19:37:18.726Z,17.50
2018-10-11T19:39:46.312Z,17.50
2018-10-11T19:42:14.897Z,17.40
2018-10-11T19:44:42.469Z,17.40
2018-10-11T19:47:10.124Z,17.30
2018-10-11T19:49:37.697Z,17.30
2018-10-11T19:52:06.565Z,17.30
2018-10-11T19:54:34.141Z,17.30
2018-10-11T19:57:02.558Z,17.20
2018-10-11T19:59:30.157Z,17.20
2018-10-11T20:01:57.760Z,17.10
2018-10-11T20:04:25.322Z,17.10
2018-10-11T20:06:52.892Z,17.10
2018-10-11T20:09:21.495Z,17.10
2018-10-11T20:11:49.065Z,17.10
2018-10-11T20:14:16.634Z,17.10
2018-10-11T20:16:44.189Z,17.10
2018-10-11T20:19:11.793Z,17.00
2018-10-11T20:21:39.373Z,17.00
2018-10-11T20:24:08.122Z,17.00
2018-10-11T20:26:35.693Z,17.00
2018-10-11T20:29:03.297Z,17.00
2018-10-11T20:31:30.966Z,17.00
2018-10-11T20:33:58.506Z,17.00
2018-10-11T20:36:26.058Z,17.00
2018-10-11T20:38:54.381Z,17.00
2018-10-11T20:41:22.054Z,17.00
2018-10-11T20:43:50.562Z,17.00
2018-10-11T20:46:18.118Z,17.00
2018-10-11T20:48:45.674Z,16.90
2018-10-11T20:51:13.304Z,16.90
2018-10-11T20:53:40.831Z,16.90
2018-10-11T20:56:08.419Z,16.90
2018-10-11T20:58:35.979Z,16.90
2018-10-11T21:01:03.696Z,16.80
2018-10-11T21:03:31.254Z,16.80
2018-10-11T21:05:59.012Z,16.70
2018-10-11T21:08:26.440Z,16.70
2018-10-11T21:10:55.874Z,16.60
2018-10-11T21:13:23.414Z,16.60
2018-10-11T21:15:51.009Z,16.60
2018-10-11T21:18:18.974Z,16.60
2018-10-11T21:20:46.578Z,16.50
2018-10-11T21:23:14.169Z,16.40
2018-10-11T21:25:45.205Z,16.30
2018-10-11T21:28:12.860Z,16.20
2018-10-11T21:30:40.416Z,16.10
2018-10-11T21:33:07.981Z,16.10
2018-10-11T21:35:35.599Z,16.10
2018-10-11T21:38:03.190Z,16.10
2018-10-11T21:40:30.769Z,16.10
2018-10-11T21:42:58.345Z,16.10
2018-10-11T21:45:25.900Z,16.10
2018-10-11T21:47:53.482Z,16.10
2018-10-11T21:50:21.117Z,16.10
2018-10-11T21:52:48.763Z,16.10
2018-10-11T21:55:16.334Z,16.10
2018-10-11T21:57:43.902Z,16.20
2018-10-11T22:00:11.587Z,16.10
2018-10-11T22:02:39.161Z,16.20
2018-10-11T22:05:06.742Z,16.20
2018-10-11T22:07:34.357Z,16.20
2018-10-11T22:10:01.955Z,16.20
2018-10-11T22:12:30.525Z,16.20
2018-10-11T22:14:58.283Z,16.20
2018-10-11T22:17:25.982Z,16.10
2018-10-11T22:19:53.566Z,16.10
2018-10-11T22:22:21.260Z,16.00
2018-10-11T22:24:48.843Z,16.10
2018-10-11T22:27:19.509Z,16.00
2018-10-11T22:29:47.073Z,16.00
2018-10-11T22:32:14.672Z,16.00
2018-10-11T22:34:42.240Z,16.00
2018-10-11T22:37:09.920Z,16.00
2018-10-11T22:39:37.469Z,16.00
2018-10-11T22:42:05.142Z,16.10
2018-10-11T22:44:32.723Z,16.10
2018-10-11T22:47:00.318Z,16.20
2018-10-11T22:49:27.893Z,16.30
2018-10-11T22:51:55.490Z,16.40
2018-10-11T22:54:23.554Z,16.40
2018-10-11T22:56:51.316Z,16.40
2018-10-11T22:59:20.827Z,16.40
2018-10-11T23:01:48.385Z,16.40
2018-10-11T23:04:16.393Z,16.40
2018-10-11T23:06:43.969Z,16.30
2018-10-11T23:09:11.545Z,16.20
2018-10-11T23:11:39.169Z,16.20
2018-10-11T23:14:07.236Z,16.20
2018-10-11T23:16:35.142Z,16.10
2018-10-11T23:19:02.926Z,16.10
2018-10-11T23:21:30.501Z,16.10
2018-10-11T23:23:58.845Z,16.10
2018-10-11T23:26:26.674Z,16.10
2018-10-11T23:28:54.245Z,16.10
2018-10-11T23:31:21.863Z,16.10
2018-10-11T23:33:50.240Z,16.10
2018-10-11T23:36:17.816Z,16.10
2018-10-11T23:38:45.413Z,16.10
2018-10-11T23:41:12.945Z,16.10
2018-10-11T23:43:40.681Z,16.20
2018-10-11T23:46:08.253Z,16.10
2018-10-11T23:48:35.798Z,16.10
2018-10-11T23:51:03.364Z,16.10
2018-10-11T23:53:30.962Z,16.10
2018-10-11T23:55:58.636Z,16.10
2018-10-11T23:58:26.184Z,16.10
